Time;durP1;ratioP1;P1;durP2;ratioP2;P2;SDS_P1;SDS_P2;PMS_P1;PMS_P2;Temp;Humidity;BMP_temperature;BMP_pressure;BME280_temperature;BME280_humidity;BME280_pressure;Samples;Min_cycle;Max_cycle;Signal;HPM_P1;HPM_P2
2021/01/11 00:03:08;;;;;;;71.80;37.30;;;;;1.20;101853.00;;;;10412070;28;20236;-78
2021/01/11 00:08:10;;;;;;;74.67;38.13;;;;;1.20;101851.00;;;;10422331;28;20206;-78
2021/01/11 00:13:11;;;;;;;79.83;39.77;;;;;1.30;101849.00;;;;10451922;28;20672;-77
2021/01/11 00:18:13;;;;;;;74.33;38.37;;;;;1.30;101833.00;;;;10468941;28;20190;-78
2021/01/11 00:23:15;;;;;;;63.70;35.37;;;;;1.40;101837.00;;;;10460830;28;20253;-78
2021/01/11 00:28:16;;;;;;;66.93;34.77;;;;;1.40;101843.00;;;;10442111;28;20225;-78
2021/01/11 00:33:17;;;;;;;71.57;39.07;;;;;1.50;101835.00;;;;10434864;28;20252;-77
2021/01/11 00:38:19;;;;;;;71.80;38.97;;;;;1.50;101823.00;;;;10458702;28;20183;-78
2021/01/11 00:43:20;;;;;;;66.27;35.87;;;;;1.50;101821.00;;;;10415466;28;20252;-78
2021/01/11 00:48:21;;;;;;;59.20;33.50;;;;;1.50;101809.00;;;;10408192;28;20215;-78
2021/01/11 00:53:23;;;;;;;64.47;33.47;;;;;1.50;101799.00;;;;10435382;28;20254;-78
2021/01/11 00:58:26;;;;;;;57.63;32.53;;;;;1.60;101794.00;;;;10423187;28;20187;-78
2021/01/11 01:03:28;;;;;;;61.73;32.47;;;;;1.60;101799.00;;;;10442751;28;20212;-78
2021/01/11 01:08:31;;;;;;;58.07;32.33;;;;;1.60;101786.00;;;;10444082;28;20208;-78
2021/01/11 01:13:32;;;;;;;57.20;32.47;;;;;1.60;101795.00;;;;10415590;28;20194;-78
2021/01/11 01:18:33;;;;;;;51.67;29.97;;;;;1.70;101793.00;;;;10447747;28;20228;-78
2021/01/11 01:23:35;;;;;;;49.37;29.60;;;;;1.70;101799.00;;;;10421446;28;20205;-78
2021/01/11 01:28:37;;;;;;;48.03;29.57;;;;;1.70;101789.00;;;;10407565;28;20909;-78
2021/01/11 01:33:39;;;;;;;46.67;29.20;;;;;1.70;101795.00;;;;10432293;28;20190;-78
2021/01/11 01:38:40;;;;;;;49.17;27.53;;;;;1.80;101784.00;;;;10440547;28;20915;-78
2021/01/11 01:43:41;;;;;;;47.53;28.27;;;;;1.80;101787.00;;;;10438036;28;20214;-78
2021/01/11 01:48:43;;;;;;;44.17;28.97;;;;;1.80;101793.00;;;;10417581;28;20225;-78
2021/01/11 01:53:46;;;;;;;44.40;28.13;;;;;1.90;101775.00;;;;10446933;28;20336;-78
2021/01/11 01:58:48;;;;;;;48.97;29.60;;;;;2.00;101780.00;;;;10425051;28;20197;-78
2021/01/11 02:03:50;;;;;;;47.60;28.50;;;;;2.00;101773.00;;;;10423288;28;20203;-78
2021/01/11 02:09:06;;;;;;;43.20;28.20;;;;;2.10;101774.00;;;;10425799;28;20531;-78
2021/01/11 02:14:23;;;;;;;43.43;26.87;;;;;2.10;101774.00;;;;10417528;28;20197;-78
2021/01/11 02:19:53;;;;;;;43.10;28.00;;;;;2.20;101764.00;;;;10428312;28;20240;-78
2021/01/11 02:25:07;;;;;;;43.07;25.13;;;;;2.10;101773.00;;;;10415689;28;20626;-78
2021/01/11 02:30:35;;;;;;;41.20;24.87;;;;;2.10;101775.00;;;;10399069;28;20244;-78
2021/01/11 02:35:48;;;;;;;38.67;24.50;;;;;2.10;101770.00;;;;10427598;28;20253;-78
2021/01/11 02:40:50;;;;;;;37.67;24.03;;;;;2.10;101771.00;;;;10389223;28;20206;-78
2021/01/11 02:45:52;;;;;;;38.07;24.83;;;;;2.00;101774.00;;;;10410981;28;20257;-78
2021/01/11 02:51:16;;;;;;;41.97;25.77;;;;;2.00;101769.00;;;;10411738;28;20201;-78
2021/01/11 02:56:24;;;;;;;36.70;24.17;;;;;2.00;101761.00;;;;10403271;28;20597;-78
2021/01/11 03:01:32;;;;;;;39.87;24.20;;;;;2.00;101755.00;;;;10386493;28;20237;-78
2021/01/11 03:06:34;;;;;;;35.13;23.60;;;;;2.00;101757.00;;;;10424328;28;20309;-78
2021/01/11 03:11:39;;;;;;;38.07;24.50;;;;;2.10;101767.00;;;;10423850;28;20229;-78
2021/01/11 03:16:40;;;;;;;35.10;23.10;;;;;2.20;101765.00;;;;10387251;28;20198;-78
2021/01/11 03:21:41;;;;;;;31.20;22.47;;;;;2.30;101753.00;;;;10419622;28;20215;-78
2021/01/11 03:26:43;;;;;;;31.50;21.87;;;;;2.40;101756.00;;;;10456159;28;20256;-78
2021/01/11 03:31:46;;;;;;;31.00;21.30;;;;;2.40;101736.00;;;;10453016;28;20203;-78
2021/01/11 03:36:48;;;;;;;32.37;20.80;;;;;2.50;101722.00;;;;10423814;28;20214;-78
2021/01/11 03:41:49;;;;;;;27.90;20.67;;;;;2.50;101738.00;;;;10433944;28;20198;-78
2021/01/11 03:46:50;;;;;;;25.47;19.07;;;;;2.50;101733.00;;;;10409449;28;20230;-78
2021/01/11 03:51:52;;;;;;;29.00;19.40;;;;;2.50;101716.00;;;;10434315;28;20201;-78
2021/01/11 03:56:54;;;;;;;23.17;16.30;;;;;2.60;101713.00;;;;10385305;28;20194;-78
2021/01/11 04:01:55;;;;;;;25.57;19.40;;;;;2.60;101733.00;;;;10418139;28;20205;-78
2021/01/11 04:06:56;;;;;;;26.37;18.60;;;;;2.60;101717.00;;;;10433856;28;20202;-78
2021/01/11 04:11:58;;;;;;;22.13;16.43;;;;;2.60;101707.00;;;;10414000;28;20195;-78
2021/01/11 04:16:59;;;;;;;23.43;16.60;;;;;2.60;101703.00;;;;10433462;28;20197;-78
2021/01/11 04:22:02;;;;;;;25.60;16.17;;;;;2.60;101708.00;;;;10450666;28;20186;-78
2021/01/11 04:27:04;;;;;;;20.70;15.77;;;;;2.60;101705.00;;;;10439554;28;20275;-78
2021/01/11 04:32:05;;;;;;;21.60;15.00;;;;;2.60;101689.00;;;;10435047;28;20248;-78
2021/01/11 04:37:08;;;;;;;19.97;15.27;;;;;2.60;101688.00;;;;10441504;28;20649;-78
2021/01/11 04:42:19;;;;;;;20.90;16.00;;;;;2.60;101688.00;;;;10452752;28;20260;-78
2021/01/11 04:47:20;;;;;;;18.07;13.70;;;;;2.60;101672.00;;;;10413155;28;20203;-77
2021/01/11 04:52:24;;;;;;;20.97;14.93;;;;;2.60;101676.00;;;;10469023;28;20202;-78
2021/01/11 04:57:33;;;;;;;17.47;14.47;;;;;2.60;101670.00;;;;10395946;28;20287;-78
2021/01/11 05:02:44;;;;;;;17.57;13.40;;;;;2.60;101672.00;;;;10410094;28;20202;-78
2021/01/11 05:07:46;;;;;;;20.30;13.67;;;;;2.60;101673.00;;;;10409305;28;20207;-78
2021/01/11 05:13:02;;;;;;;18.00;13.70;;;;;2.60;101675.00;;;;10411617;28;20202;-78
2021/01/11 05:18:14;;;;;;;19.77;13.97;;;;;2.60;101657.00;;;;10434502;28;20188;-78
2021/01/11 05:23:17;;;;;;;20.00;12.97;;;;;2.60;101654.00;;;;10450622;28;20198;-78
2021/01/11 05:28:18;;;;;;;15.70;10.70;;;;;2.60;101646.00;;;;10399930;28;20293;-78
2021/01/11 05:33:21;;;;;;;16.33;13.03;;;;;2.60;101647.00;;;;10459164;28;20193;-78
2021/01/11 05:38:22;;;;;;;17.50;12.90;;;;;2.60;101639.00;;;;10466805;28;20225;-78
2021/01/11 05:43:24;;;;;;;16.10;12.40;;;;;2.70;101654.00;;;;10415041;28;20215;-78
2021/01/11 05:48:25;;;;;;;16.63;12.97;;;;;2.70;101656.00;;;;10435099;28;20202;-78
2021/01/11 05:53:27;;;;;;;17.23;13.70;;;;;2.70;101651.00;;;;10448878;28;20237;-78
2021/01/11 05:58:28;;;;;;;17.60;14.00;;;;;2.70;101666.00;;;;10410292;28;20276;-78
2021/01/11 06:03:30;;;;;;;17.40;13.70;;;;;2.70;101673.00;;;;10424399;28;20198;-78
2021/01/11 06:08:32;;;;;;;17.63;13.60;;;;;2.70;101661.00;;;;10418990;28;20210;-78
2021/01/11 06:13:34;;;;;;;21.27;16.03;;;;;2.70;101648.00;;;;10431036;28;20256;-78
2021/01/11 06:18:35;;;;;;;25.77;16.37;;;;;2.70;101657.00;;;;10447809;28;20646;-78
2021/01/11 06:23:38;;;;;;;23.67;14.87;;;;;2.70;101658.00;;;;10448907;28;20224;-78
2021/01/11 06:28:40;;;;;;;23.70;17.20;;;;;2.70;101653.00;;;;10424105;28;20206;-78
2021/01/11 06:33:42;;;;;;;23.97;16.63;;;;;2.70;101641.00;;;;10465560;28;20197;-78
2021/01/11 06:38:45;;;;;;;25.33;17.50;;;;;2.60;101647.00;;;;10434168;28;20190;-78
2021/01/11 06:43:54;;;;;;;23.07;17.07;;;;;2.60;101652.00;;;;10421346;28;20268;-77
2021/01/11 06:48:57;;;;;;;27.47;17.40;;;;;2.70;101652.00;;;;10443053;28;20206;-78
2021/01/11 06:54:09;;;;;;;29.20;18.37;;;;;2.60;101628.00;;;;10432101;28;20219;-78
2021/01/11 06:59:18;;;;;;;25.40;17.50;;;;;2.60;101633.00;;;;10374052;28;20191;-78
2021/01/11 07:04:46;;;;;;;27.77;18.17;;;;;2.70;101624.00;;;;10419121;28;20222;-78
2021/01/11 07:09:54;;;;;;;23.50;16.50;;;;;2.70;101623.00;;;;10411048;28;20194;-78
2021/01/11 07:15:14;;;;;;;24.40;16.73;;;;;2.70;101625.00;;;;10435105;28;20198;-78
2021/01/11 07:20:36;;;;;;;27.40;16.93;;;;;2.70;101622.00;;;;10424263;28;20202;-78
2021/01/11 07:25:38;;;;;;;24.30;15.87;;;;;2.80;101613.00;;;;10438618;28;20255;-78
2021/01/11 07:30:39;;;;;;;20.10;15.13;;;;;2.80;101616.00;;;;10415325;28;20199;-78
2021/01/11 07:35:40;;;;;;;21.97;15.80;;;;;2.80;101607.00;;;;10421654;28;20209;-78
2021/01/11 07:40:42;;;;;;;22.60;14.20;;;;;2.80;101616.00;;;;10447697;28;20673;-78
2021/01/11 07:45:43;;;;;;;22.20;14.63;;;;;2.90;101595.00;;;;10452064;28;20688;-78
2021/01/11 07:50:44;;;;;;;25.47;14.73;;;;;2.90;101592.00;;;;10404476;28;20214;-78
2021/01/11 07:55:46;;;;;;;21.40;14.03;;;;;2.90;101579.00;;;;10416381;28;20209;-78
2021/01/11 08:01:02;;;;;;;21.90;14.23;;;;;2.90;101586.00;;;;10451492;28;20256;-78
2021/01/11 08:06:04;;;;;;;23.60;15.50;;;;;2.90;101571.00;;;;10451274;28;20206;-78
2021/01/11 08:11:05;;;;;;;21.60;15.00;;;;;2.90;101582.00;;;;10422785;28;20209;-78
2021/01/11 08:16:11;;;;;;;25.77;16.00;;;;;2.80;101583.00;;;;10436370;28;20677;-78
2021/01/11 08:21:16;;;;;;;32.47;14.87;;;;;2.80;101575.00;;;;10436537;28;20198;-78
2021/01/11 08:26:18;;;;;;;26.40;15.03;;;;;2.90;101569.00;;;;10413847;28;20218;-78
2021/01/11 08:31:22;;;;;;;27.03;17.03;;;;;2.90;101562.00;;;;10450949;28;20313;-78
2021/01/11 08:36:24;;;;;;;29.23;15.23;;;;;3.00;101567.00;;;;10424425;28;20639;-78
2021/01/11 08:41:25;;;;;;;24.53;16.33;;;;;3.10;101580.00;;;;10413938;28;20191;-78
2021/01/11 08:46:57;;;;;;;29.10;17.87;;;;;3.20;101575.00;;;;10443015;28;20213;-78
2021/01/11 08:52:07;;;;;;;31.17;16.93;;;;;3.30;101562.00;;;;10408939;28;20273;-77
2021/01/11 08:57:11;;;;;;;25.50;16.83;;;;;3.40;101568.00;;;;10390917;28;20543;-78
2021/01/11 09:02:26;;;;;;;27.63;16.30;;;;;3.50;101572.00;;;;10403312;28;20550;-78
2021/01/11 09:07:33;;;;;;;29.40;16.03;;;;;3.70;101566.00;;;;10484400;28;20232;-78
2021/01/11 09:12:35;;;;;;;25.43;15.87;;;;;3.70;101571.00;;;;10439599;28;20446;-78
2021/01/11 09:17:36;;;;;;;23.97;14.47;;;;;3.70;101578.00;;;;10406133;28;20630;-78
2021/01/11 09:22:42;;;;;;;25.53;16.13;;;;;3.70;101573.00;;;;10390221;28;20264;-78
2021/01/11 09:27:43;;;;;;;21.33;14.30;;;;;3.80;101576.00;;;;10378191;28;20265;-78
2021/01/11 09:32:45;;;;;;;23.23;14.77;;;;;3.90;101561.00;;;;10458853;28;20194;-78
2021/01/11 09:37:47;;;;;;;22.17;13.60;;;;;4.10;101551.00;;;;10447137;28;20202;-78
2021/01/11 09:42:49;;;;;;;19.47;14.00;;;;;4.20;101555.00;;;;10446445;28;20282;-78
2021/01/11 09:47:50;;;;;;;24.57;15.40;;;;;4.40;101553.00;;;;10404068;28;20233;-78
2021/01/11 09:52:54;;;;;;;19.50;12.67;;;;;4.50;101559.00;;;;10391886;28;20658;-78
2021/01/11 09:57:55;;;;;;;19.83;13.97;;;;;4.70;101562.00;;;;10414512;28;20194;-78
2021/01/11 10:02:57;;;;;;;21.50;14.30;;;;;5.00;101564.00;;;;10444838;28;20206;-78
2021/01/11 10:08:02;;;;;;;23.10;13.70;;;;;5.20;101561.00;;;;10392110;28;20198;-78
2021/01/11 10:13:04;;;;;;;20.17;13.37;;;;;5.30;101555.00;;;;10417274;28;20190;-78
2021/01/11 10:18:05;;;;;;;18.57;12.47;;;;;5.30;101552.00;;;;10456035;28;20231;-78
2021/01/11 10:23:06;;;;;;;19.43;12.73;;;;;5.30;101548.00;;;;10457629;28;20218;-78
2021/01/11 10:28:08;;;;;;;17.07;12.47;;;;;5.30;101530.00;;;;10438466;28;20203;-78
2021/01/11 10:33:09;;;;;;;18.17;12.00;;;;;5.30;101523.00;;;;10437703;28;20198;-78
2021/01/11 10:38:10;;;;;;;23.30;15.20;;;;;5.20;101520.00;;;;10445252;28;20178;-78
2021/01/11 10:43:12;;;;;;;24.17;14.40;;;;;5.20;101514.00;;;;10410571;28;20645;-78
2021/01/11 10:48:13;;;;;;;19.90;13.57;;;;;5.30;101516.00;;;;10405123;28;20431;-78
2021/01/11 10:53:16;;;;;;;21.20;14.43;;;;;5.40;101502.00;;;;10388979;28;20248;-78
2021/01/11 10:58:18;;;;;;;23.30;14.90;;;;;5.20;101498.00;;;;10448625;28;20233;-78
2021/01/11 11:03:19;;;;;;;26.03;14.97;;;;;5.30;101495.00;;;;10447127;28;20260;-78
2021/01/11 11:08:21;;;;;;;22.87;15.20;;;;;5.20;101490.00;;;;10412893;28;20206;-78
2021/01/11 11:13:23;;;;;;;21.77;15.03;;;;;5.10;101486.00;;;;10468272;28;20650;-78
2021/01/11 11:18:24;;;;;;;20.80;15.00;;;;;5.10;101474.00;;;;10433753;28;20198;-78
2021/01/11 11:23:25;;;;;;;19.87;13.03;;;;;5.10;101470.00;;;;10407683;28;20195;-78
2021/01/11 11:28:28;;;;;;;19.03;13.70;;;;;5.20;101466.00;;;;10417943;28;20241;-78
2021/01/11 11:33:29;;;;;;;19.67;14.37;;;;;5.30;101457.00;;;;10407040;28;20222;-78
2021/01/11 11:38:31;;;;;;;27.97;17.40;;;;;5.30;101450.00;;;;10391281;28;20213;-78
2021/01/11 11:43:33;;;;;;;23.17;16.63;;;;;5.30;101435.00;;;;10438933;28;20245;-78
2021/01/11 11:48:34;;;;;;;23.30;15.80;;;;;5.40;101426.00;;;;10414452;28;20241;-78
2021/01/11 11:53:38;;;;;;;23.00;15.27;;;;;5.60;101400.00;;;;10445075;28;20226;-77
2021/01/11 11:58:40;;;;;;;23.33;14.77;;;;;5.50;101415.00;;;;10395322;28;20206;-78
2021/01/11 12:03:41;;;;;;;25.03;15.40;;;;;5.40;101406.00;;;;10440977;28;20605;-78
2021/01/11 12:08:42;;;;;;;24.83;15.53;;;;;5.20;101402.00;;;;10461583;28;20739;-77
2021/01/11 12:13:44;;;;;;;27.00;16.87;;;;;5.10;101397.00;;;;10408092;28;20198;-77
2021/01/11 12:18:45;;;;;;;26.77;16.60;;;;;4.90;101388.00;;;;10417600;28;20203;-78
2021/01/11 12:23:47;;;;;;;28.30;16.47;;;;;4.90;101376.00;;;;10419479;28;20191;-77
2021/01/11 12:28:49;;;;;;;31.37;19.23;;;;;5.00;101381.00;;;;10409782;28;20206;-77
2021/01/11 12:33:50;;;;;;;32.37;19.03;;;;;5.00;101363.00;;;;10441817;28;20248;-77
2021/01/11 12:39:08;;;;;;;31.00;20.77;;;;;5.20;101363.00;;;;10388338;28;20186;-77
2021/01/11 12:44:11;;;;;;;30.60;20.00;;;;;4.90;101363.00;;;;10441839;28;20222;-77
2021/01/11 12:49:12;;;;;;;33.83;19.17;;;;;5.10;101336.00;;;;10442672;28;20206;-77
2021/01/11 12:54:14;;;;;;;32.97;19.43;;;;;5.30;101344.00;;;;10433884;28;20257;-77
2021/01/11 12:59:15;;;;;;;34.10;20.00;;;;;5.20;101328.00;;;;10428860;28;20211;-77
2021/01/11 13:04:16;;;;;;;29.80;20.90;;;;;5.80;101320.00;;;;10383773;28;20203;-77
2021/01/11 13:09:18;;;;;;;26.73;18.60;;;;;6.00;101306.00;;;;10384071;28;20355;-77
2021/01/11 13:14:19;;;;;;;30.23;19.90;;;;;6.00;101288.00;;;;10398884;28;20241;-77
2021/01/11 13:19:21;;;;;;;29.27;19.80;;;;;6.20;101297.00;;;;10424972;28;20186;-77
2021/01/11 13:24:22;;;;;;;27.33;17.83;;;;;6.30;101277.00;;;;10394240;28;20202;-77
2021/01/11 13:29:23;;;;;;;26.90;17.57;;;;;6.10;101276.00;;;;10425121;28;20217;-78
2021/01/11 13:34:25;;;;;;;29.80;18.43;;;;;5.90;101256.00;;;;10443005;28;20186;-78
2021/01/11 13:39:27;;;;;;;27.10;17.43;;;;;5.80;101245.00;;;;10419731;28;20183;-78
2021/01/11 13:44:28;;;;;;;25.87;17.57;;;;;5.80;101251.00;;;;10409955;28;20271;-79
2021/01/11 13:49:30;;;;;;;28.70;16.90;;;;;5.80;101244.00;;;;10386123;28;20219;-78
2021/01/11 13:54:35;;;;;;;30.33;17.47;;;;;5.60;101257.00;;;;10371451;28;20194;-78
2021/01/11 13:59:36;;;;;;;23.90;16.77;;;;;5.70;101234.00;;;;10371243;28;20191;-77
2021/01/11 14:04:38;;;;;;;27.87;15.83;;;;;5.80;101231.00;;;;10425602;28;20194;-78
2021/01/11 14:09:40;;;;;;;20.93;12.17;;;;;5.90;101227.00;;;;10445587;28;20221;-77
2021/01/11 14:14:41;;;;;;;22.17;14.70;;;;;5.80;101230.00;;;;10427254;28;20209;-78
2021/01/11 14:19:43;;;;;;;22.47;13.37;;;;;6.00;101219.00;;;;10443612;28;20198;-78
2021/01/11 14:24:44;;;;;;;25.93;14.67;;;;;5.90;101222.00;;;;10461333;28;20190;-78
2021/01/11 14:29:49;;;;;;;19.73;13.03;;;;;5.80;101233.00;;;;10461054;28;20613;-77
2021/01/11 14:34:51;;;;;;;17.47;11.97;;;;;5.60;101230.00;;;;10426310;28;20923;-78
2021/01/11 14:39:52;;;;;;;19.70;13.30;;;;;5.50;101223.00;;;;10419049;28;20191;-78
2021/01/11 14:44:53;;;;;;;22.40;13.83;;;;;5.50;101208.00;;;;10432201;28;20214;-77
2021/01/11 14:49:55;;;;;;;21.50;13.17;;;;;5.60;101206.00;;;;10394190;28;20222;-77
2021/01/11 14:54:56;;;;;;;21.23;13.60;;;;;5.70;101200.00;;;;10425936;28;20207;-77
2021/01/11 14:59:57;;;;;;;19.70;14.27;;;;;5.70;101201.00;;;;10441778;28;20248;-78
2021/01/11 15:04:58;;;;;;;22.30;13.63;;;;;5.60;101201.00;;;;10438073;28;20224;-77
2021/01/11 15:10:02;;;;;;;19.93;13.80;;;;;5.60;101190.00;;;;10459561;28;20194;-78
2021/01/11 15:15:05;;;;;;;25.67;14.20;;;;;5.60;101199.00;;;;10404170;28;20230;-78
2021/01/11 15:20:09;;;;;;;18.47;13.43;;;;;5.60;101192.00;;;;10427282;28;20194;-78
2021/01/11 15:25:11;;;;;;;21.27;13.70;;;;;5.60;101187.00;;;;10401798;28;20210;-78
2021/01/11 15:30:29;;;;;;;21.20;14.47;;;;;5.70;101178.00;;;;10425200;28;20195;-78
2021/01/11 15:35:30;;;;;;;19.27;14.50;;;;;5.70;101173.00;;;;10422334;28;20189;-78
2021/01/11 15:40:32;;;;;;;18.87;15.10;;;;;5.70;101165.00;;;;10424957;28;20190;-79
2021/01/11 15:45:33;;;;;;;19.53;14.00;;;;;5.60;101153.00;;;;10400439;28;20213;-78
2021/01/11 15:50:35;;;;;;;21.87;14.30;;;;;5.50;101158.00;;;;10426101;28;20289;-78
2021/01/11 15:55:37;;;;;;;19.97;12.43;;;;;5.50;101169.00;;;;10464415;28;20321;-78
2021/01/11 16:00:38;;;;;;;18.93;13.27;;;;;5.50;101165.00;;;;10384129;28;20534;-78
2021/01/11 16:05:39;;;;;;;21.70;15.00;;;;;5.50;101154.00;;;;10396079;28;20210;-78
2021/01/11 16:10:41;;;;;;;23.07;15.97;;;;;5.50;101161.00;;;;10414437;28;20826;-78
2021/01/11 16:15:42;;;;;;;23.70;15.33;;;;;5.50;101164.00;;;;10442971;28;20187;-78
2021/01/11 16:20:43;;;;;;;23.10;15.47;;;;;5.50;101165.00;;;;10410187;28;20238;-78
2021/01/11 16:25:45;;;;;;;22.97;14.67;;;;;5.50;101161.00;;;;10413870;28;20203;-78
2021/01/11 16:30:51;;;;;;;19.87;14.17;;;;;5.50;101146.00;;;;10393990;28;20855;-77
2021/01/11 16:35:52;;;;;;;22.03;14.90;;;;;5.60;101137.00;;;;10439871;28;20186;-77
2021/01/11 16:40:54;;;;;;;26.63;14.53;;;;;5.60;101152.00;;;;10453553;28;20285;-78
2021/01/11 16:45:55;;;;;;;22.10;16.17;;;;;5.50;101141.00;;;;10397432;28;20586;-78
2021/01/11 16:50:56;;;;;;;24.00;15.57;;;;;5.50;101137.00;;;;10443695;28;20194;-78
2021/01/11 16:55:58;;;;;;;22.97;15.40;;;;;5.50;101128.00;;;;10434348;28;20298;-78
2021/01/11 17:00:59;;;;;;;21.03;15.00;;;;;5.50;101131.00;;;;10417452;28;20198;-78
2021/01/11 17:06:04;;;;;;;23.47;15.03;;;;;5.50;101119.00;;;;10445252;28;20205;-78
2021/01/11 17:11:09;;;;;;;24.37;15.47;;;;;5.50;101113.00;;;;10383897;28;20194;-78
2021/01/11 17:16:12;;;;;;;23.57;15.93;;;;;5.60;101108.00;;;;10419822;28;20311;-78
2021/01/11 17:21:14;;;;;;;27.47;16.97;;;;;5.60;101117.00;;;;10414020;28;20573;-80
2021/01/11 17:26:33;;;;;;;21.40;15.90;;;;;5.60;101096.00;;;;10435632;28;20265;-79
2021/01/11 17:31:34;;;;;;;23.43;16.73;;;;;5.50;101084.00;;;;10404477;28;20554;-79
2021/01/11 17:36:36;;;;;;;25.93;17.07;;;;;5.50;101070.00;;;;10415723;28;20627;-79
2021/01/11 17:41:38;;;;;;;25.30;15.70;;;;;5.50;101066.00;;;;10439956;28;20202;-79
2021/01/11 17:46:41;;;;;;;23.37;16.90;;;;;5.50;101075.00;;;;10377257;28;20257;-79
2021/01/11 17:51:44;;;;;;;25.00;17.27;;;;;5.50;101069.00;;;;10403779;28;20178;-78
2021/01/11 17:56:45;;;;;;;22.70;15.73;;;;;5.50;101067.00;;;;10414785;28;20575;-78
2021/01/11 18:01:46;;;;;;;27.67;16.70;;;;;5.50;101073.00;;;;10405336;28;20634;-79
2021/01/11 18:06:48;;;;;;;23.77;16.43;;;;;5.50;101067.00;;;;10407882;28;20607;-79
2021/01/11 18:11:49;;;;;;;24.67;15.43;;;;;5.50;101060.00;;;;10423074;28;20835;-79
2021/01/11 18:16:51;;;;;;;23.10;16.10;;;;;5.50;101061.00;;;;10429645;28;20206;-79
2021/01/11 18:21:52;;;;;;;23.37;16.07;;;;;5.50;101059.00;;;;10407755;28;20734;-79
2021/01/11 18:26:53;;;;;;;26.47;17.60;;;;;5.50;101053.00;;;;10425343;28;20233;-78
2021/01/11 18:31:58;;;;;;;22.47;18.27;;;;;5.50;101045.00;;;;10406701;28;20870;-78
2021/01/11 18:37:02;;;;;;;22.87;15.03;;;;;5.50;101042.00;;;;10424480;28;20190;-78
2021/01/11 18:42:05;;;;;;;24.03;17.87;;;;;5.50;101045.00;;;;10386810;28;20225;-79
2021/01/11 18:47:06;;;;;;;24.27;17.70;;;;;5.50;101038.00;;;;10426270;28;20213;-78
2021/01/11 18:52:07;;;;;;;26.57;17.67;;;;;5.50;101036.00;;;;10409752;28;20253;-78
2021/01/11 18:57:09;;;;;;;24.37;16.83;;;;;5.60;101030.00;;;;10438027;28;20558;-78
2021/01/11 19:02:11;;;;;;;22.87;17.30;;;;;5.60;101019.00;;;;10409043;28;20280;-79
2021/01/11 19:07:16;;;;;;;22.33;16.27;;;;;5.70;101017.00;;;;10449093;28;20315;-79
2021/01/11 19:12:17;;;;;;;22.20;15.97;;;;;5.70;101003.00;;;;10429668;28;20202;-78
2021/01/11 19:17:19;;;;;;;22.63;17.37;;;;;5.70;101005.00;;;;10421074;28;20281;-79
2021/01/11 19:22:21;;;;;;;25.47;17.13;;;;;5.70;101003.00;;;;10445323;28;20204;-79
2021/01/11 19:27:22;;;;;;;20.90;16.33;;;;;5.70;100992.00;;;;10420878;28;20210;-79
2021/01/11 19:32:23;;;;;;;26.47;17.87;;;;;5.70;100984.00;;;;10436289;28;20198;-78
2021/01/11 19:37:25;;;;;;;20.03;14.50;;;;;5.70;100980.00;;;;10424695;28;20294;-79
2021/01/11 19:42:27;;;;;;;21.63;16.03;;;;;5.70;100983.00;;;;10396144;28;20244;-78
2021/01/11 19:47:29;;;;;;;22.83;15.07;;;;;5.80;100979.00;;;;10408476;28;20213;-79
2021/01/11 19:52:31;;;;;;;17.97;11.57;;;;;5.80;100959.00;;;;10429341;28;20190;-79
2021/01/11 19:57:32;;;;;;;23.73;15.27;;;;;5.80;100952.00;;;;10390059;28;20252;-77
2021/01/11 20:02:34;;;;;;;20.33;12.60;;;;;5.80;100950.00;;;;10423062;28;20703;-77
2021/01/11 20:07:36;;;;;;;20.03;13.80;;;;;5.90;100948.00;;;;10400271;28;20203;-78
2021/01/11 20:12:37;;;;;;;22.00;12.00;;;;;5.90;100932.00;;;;10411261;28;20760;-77
2021/01/11 20:17:42;;;;;;;25.73;14.67;;;;;5.90;100927.00;;;;10383975;28;20205;-79
2021/01/11 20:22:48;;;;;;;23.70;13.30;;;;;6.00;100918.00;;;;10415707;28;20233;-78
2021/01/11 20:27:51;;;;;;;17.90;11.53;;;;;5.90;100919.00;;;;10417534;28;20207;-78
2021/01/11 20:32:54;;;;;;;20.07;12.50;;;;;5.90;100920.00;;;;10398701;28;20242;-79
2021/01/11 20:37:58;;;;;;;18.03;12.03;;;;;5.90;100920.00;;;;10435367;28;20292;-78
2021/01/11 20:43:02;;;;;;;21.27;13.47;;;;;5.80;100911.00;;;;10435095;28;20609;-79
2021/01/11 20:48:04;;;;;;;18.70;10.97;;;;;5.80;100903.00;;;;10410817;28;20203;-79
2021/01/11 20:53:05;;;;;;;17.80;12.07;;;;;5.70;100914.00;;;;10423992;28;20202;-79
2021/01/11 20:58:07;;;;;;;16.80;11.30;;;;;5.70;100916.00;;;;10413292;28;20217;-79
2021/01/11 21:03:09;;;;;;;18.40;11.57;;;;;5.70;100911.00;;;;10416201;28;20265;-79
2021/01/11 21:08:10;;;;;;;22.87;12.13;;;;;5.70;100905.00;;;;10414893;28;20264;-79
2021/01/11 21:13:11;;;;;;;25.10;11.53;;;;;5.60;100898.00;;;;10408087;28;20182;-78
2021/01/11 21:18:16;;;;;;;15.20;11.10;;;;;5.60;100899.00;;;;10412958;28;20253;-79
2021/01/11 21:23:17;;;;;;;16.73;10.53;;;;;5.60;100900.00;;;;10414207;28;20579;-78
2021/01/11 21:28:19;;;;;;;39.90;14.00;;;;;5.60;100882.00;;;;10418839;28;20206;-78
2021/01/11 21:33:20;;;;;;;18.07;11.63;;;;;5.60;100881.00;;;;10418917;28;20198;-78
2021/01/11 21:38:21;;;;;;;21.03;11.30;;;;;5.60;100867.00;;;;10438143;28;20190;-79
2021/01/11 21:43:23;;;;;;;17.40;10.50;;;;;5.60;100865.00;;;;10398907;28;20215;-78
2021/01/11 21:48:24;;;;;;;18.90;10.73;;;;;5.60;100854.00;;;;10417973;28;20207;-78
2021/01/11 21:53:25;;;;;;;37.20;13.50;;;;;5.60;100859.00;;;;10394021;28;20190;-79
2021/01/11 21:58:27;;;;;;;16.80;9.20;;;;;5.60;100845.00;;;;10407576;28;20268;-77
2021/01/11 22:03:28;;;;;;;17.67;9.60;;;;;5.60;100844.00;;;;10412183;28;20203;-78
2021/01/11 22:08:29;;;;;;;15.80;9.57;;;;;5.60;100843.00;;;;10410366;28;20306;-77
2021/01/11 22:13:31;;;;;;;18.40;9.77;;;;;5.60;100820.00;;;;10404285;28;20248;-77
2021/01/11 22:18:37;;;;;;;16.80;9.90;;;;;5.60;100825.00;;;;10412719;28;20187;-78
2021/01/11 22:23:38;;;;;;;14.60;9.83;;;;;5.70;100812.00;;;;10415566;28;20622;-79
2021/01/11 22:28:40;;;;;;;14.03;9.97;;;;;5.70;100803.00;;;;10407495;28;20214;-78
2021/01/11 22:33:42;;;;;;;15.67;9.73;;;;;5.70;100811.00;;;;10438341;28;20692;-79
2021/01/11 22:38:43;;;;;;;21.03;9.27;;;;;5.70;100798.00;;;;10452171;28;20718;-79
2021/01/11 22:43:44;;;;;;;14.23;9.00;;;;;5.70;100793.00;;;;10409419;28;20214;-79
2021/01/11 22:48:46;;;;;;;12.93;8.77;;;;;5.70;100766.00;;;;10439542;28;20495;-78
2021/01/11 22:53:47;;;;;;;16.37;10.07;;;;;5.80;100761.00;;;;10425813;28;20205;-78
2021/01/11 22:58:50;;;;;;;13.43;7.73;;;;;5.90;100758.00;;;;10443079;28;20190;-77
2021/01/11 23:03:53;;;;;;;18.77;9.40;;;;;5.90;100753.00;;;;10441968;28;20229;-78
2021/01/11 23:08:55;;;;;;;16.10;8.43;;;;;6.00;100749.00;;;;10415804;28;20202;-78
2021/01/11 23:13:56;;;;;;;11.90;8.30;;;;;6.00;100751.00;;;;10399245;28;20182;-78
2021/01/11 23:18:57;;;;;;;15.23;8.40;;;;;6.10;100728.00;;;;10445245;28;20187;-79
2021/01/11 23:24:02;;;;;;;16.73;8.60;;;;;6.10;100739.00;;;;10456328;28;20237;-78
2021/01/11 23:29:06;;;;;;;14.80;8.83;;;;;6.10;100738.00;;;;10439887;28;20198;-78
2021/01/11 23:34:26;;;;;;;10.67;8.50;;;;;6.10;100728.00;;;;10438138;28;20201;-78
2021/01/11 23:39:28;;;;;;;13.87;8.53;;;;;6.10;100723.00;;;;10408278;28;20655;-78
2021/01/11 23:44:29;;;;;;;11.43;8.03;;;;;6.20;100719.00;;;;10445846;28;20218;-79
2021/01/11 23:49:31;;;;;;;11.97;8.37;;;;;6.20;100696.00;;;;10415634;28;20303;-79
2021/01/11 23:54:32;;;;;;;11.70;7.83;;;;;6.10;100703.00;;;;10424404;28;20669;-78
2021/01/11 23:59:33;;;;;;;12.33;7.07;;;;;6.10;100698.00;;;;10391935;28;20190;-78
